Soaring Guidance
Issued by NWS Reno, NV

Home | Current Version | Previous Version | Text Only | Print | Product List | Glossary On
Versions: 1 2 3 4 5 6 7
000
UXUS97 KREV 201443
SRGREV

SOARING FORECAST
NATIONAL WEATHER SERVICE - RENO NV
700 AM PST SAT JAN 20 2018

THIS SOARING FORECAST IS FOR THE EASTERN SIERRA AND WESTERN NEVADA
WITH SPECIFIC INDICES FOR THE GREATER RENO AREA.

THIS FORECAST IS PREPARED DAILY BY 700 AM AND IS NOT UPDATED.

FOR CURRENT FLIGHT CONDITIONS...FORECASTS...AND ADVISORIES...ACCESS
YOUR LOCAL BRIEFING OUTLET OR FLIGHT SERVICE STATION.

*******************************************************************
FORECASTED LOCAL INDICES FOR RENO:        TODAY     YESTERDAY
FORECASTED MAX TEMP AT RENO (DEG F).....     41          46
FORECASTED TRIGGER TEMPERATURE (DEG F)..     34          58
   EXCEEDED YESTERDAY BY
FORECASTED MAXIMUM ALTITUDE (FT MSL)....  14100       10500
FORECASTED SOARING INDEX (FPM)..........    813         465
FORECASTED K-INDEX.........VALID 18Z....     11           5
FORECASTED K-INDEX.........VALID 00Z....     10          22
FORECASTED LIFTED INDEX....VALID 18Z....      5          -2
FORECASTED LIFTED INDEX....VALID 00Z....      5          -2

AFTERNOON WINDS ALOFT FORECAST
MSL (FT) WIND/TEMP
9000  3412/-10
10000 3414/-12
12000 3419/-16
14000 3421/-20
16000 3424/-24
18000 3433/-28
24000 3571/-37
30000 3483/-52
34000 3370/-55
39000 3233/-54

SLIDE MOUNTAIN DATA:
     DATE       TIME     TEMP  DEWPT   RH         WIND (MPH)
                        (F)   (F)           | DIR  SPEED GUST


RUN: 2018-01-20  06:20 AM

SIERRA CREST 8700 FT DATA:
   DATE     TIME  TEMP  RH         WIND
                            DIR   SPEED   GUST

RENO TAF FORECAST:
KRNO 201138Z 2012/2112 VRB03KT P6SM FEW050
     FM201900 35009KT P6SM SCT060
     FM210400 VRB03KT P6SM BKN200

CARSON CITY TAF FORECAST:
KCXP 201138Z 2012/2112 27006KT P6SM BKN040
     FM201500 VRB03KT P6SM SCT040
     FM202000 34007KT P6SM SCT050
     FM210300 VRB03KT P6SM BKN200

OUTLOOK FOR THE RENO-CARSON CITY-MINDEN AREA:
.SUNDAY...MOSTLY CLOUDY. SLIGHT CHANCE OF SNOW SHOWERS IN THE
AFTERNOON. HIGHS 42 TO 47. LIGHT WINDS BECOMING SOUTHWEST AROUND
10 MPH IN THE AFTERNOON.

SUNRISE AND SUNSET
JANUARY 20 2018.......SUNRISE   715 AM PST   SUNSET   505 PM PST
JANUARY 21 2018.......SUNRISE   715 AM PST   SUNSET   507 PM PST



USA.gov is the U.S. government's official web portal to all federal, state and local government web resources and services.